Time;durP1;ratioP1;P1;durP2;ratioP2;P2;SDS_P1;SDS_P2;PMS_P1;PMS_P2;Temp;Humidity;BMP_temperature;BMP_pressure;BME280_temperature;BME280_humidity;BME280_pressure;Samples;Min_cycle;Max_cycle;Signal;HPM_P1;HPM_P2
2022/03/31 00:00:20;;;;;;;26.73;20.00;;;;;;;7.77;nan;96338.69;5036416;28;20691;-71
2022/03/31 00:02:47;;;;;;;25.03;20.37;;;;;;;7.88;nan;96342.31;5036289;28;20202;-71
2022/03/31 00:05:13;;;;;;;24.80;20.53;;;;;;;7.78;nan;96340.28;5036147;28;20225;-71
2022/03/31 00:08:01;;;;;;;25.47;19.90;;;;;;;7.78;nan;96342.16;5036114;28;20275;-71
2022/03/31 00:10:39;;;;;;;25.50;20.47;;;;;;;7.79;nan;96341.09;5036181;28;20213;-71
2022/03/31 00:13:09;;;;;;;24.47;19.60;;;;;;;7.79;nan;96339.25;5036104;28;20208;-71
2022/03/31 00:15:36;;;;;;;23.50;19.07;;;;;;;7.80;nan;96334.78;5035787;28;20217;-71
2022/03/31 00:18:04;;;;;;;24.13;19.33;;;;;;;7.74;nan;96338.41;5035891;28;20229;-71
2022/03/31 00:20:31;;;;;;;25.57;20.63;;;;;;;7.85;nan;96329.53;5035676;28;20206;-71
2022/03/31 00:22:57;;;;;;;24.20;19.43;;;;;;;7.95;nan;96327.03;5035893;28;20217;-71
2022/03/31 00:25:25;;;;;;;24.80;20.13;;;;;;;8.02;nan;96319.75;5035745;28;20588;-71
2022/03/31 00:27:52;;;;;;;26.20;20.00;;;;;;;8.01;nan;96318.16;5035953;28;20567;-71
2022/03/31 00:30:19;;;;;;;24.63;19.80;;;;;;;7.83;nan;96313.13;5035456;28;20676;-71
2022/03/31 00:32:45;;;;;;;27.30;20.17;;;;;;;7.85;nan;96311.03;5035973;28;20225;-71
2022/03/31 00:35:13;;;;;;;26.67;20.43;;;;;;;7.77;nan;96306.97;5035240;28;20198;-71
2022/03/31 00:37:44;;;;;;;25.10;19.87;;;;;;;7.86;nan;96307.34;5035570;28;20237;-71
2022/03/31 00:40:13;;;;;;;23.87;19.47;;;;;;;7.70;nan;96306.31;5035345;28;20554;-71
2022/03/31 00:42:41;;;;;;;25.50;19.03;;;;;;;7.74;nan;96304.78;5035545;28;20213;-71
2022/03/31 00:45:13;;;;;;;18.90;16.83;;;;;;;7.86;nan;96291.47;5035169;28;20222;-71
2022/03/31 00:47:40;;;;;;;22.83;17.47;;;;;;;7.86;nan;96292.28;5035087;28;20712;-72
2022/03/31 00:50:07;;;;;;;19.53;15.77;;;;;;;7.78;nan;96289.25;5035651;28;20213;-71
2022/03/31 00:52:33;;;;;;;18.60;15.47;;;;;;;7.96;nan;96281.81;5035393;28;20221;-71
2022/03/31 00:55:01;;;;;;;18.00;15.20;;;;;;;7.91;nan;96287.03;5035255;28;20202;-70
2022/03/31 00:57:28;;;;;;;18.47;15.93;;;;;;;7.89;nan;96288.34;5034829;28;20237;-71
2022/03/31 00:59:55;;;;;;;22.77;19.83;;;;;;;7.70;nan;96282.50;5035204;28;20217;-71
2022/03/31 01:02:21;;;;;;;25.17;20.67;;;;;;;7.79;nan;96288.22;5035049;28;20208;-71
2022/03/31 01:04:47;;;;;;;25.67;19.10;;;;;;;7.71;nan;96278.03;5034678;28;20228;-71
2022/03/31 01:07:14;;;;;;;23.13;18.63;;;;;;;7.63;nan;96278.44;5034823;28;20705;-71
2022/03/31 01:09:41;;;;;;;23.43;19.40;;;;;;;7.52;nan;96282.78;5034624;28;20220;-71
2022/03/31 01:12:07;;;;;;;24.27;19.70;;;;;;;7.52;nan;96280.13;5034957;28;20202;-71
2022/03/31 01:14:34;;;;;;;25.07;19.57;;;;;;;7.43;nan;96278.16;5034596;28;20667;-71
2022/03/31 01:17:00;;;;;;;22.33;17.33;;;;;;;7.59;nan;96274.69;5034722;28;20248;-71
2022/03/31 01:19:26;;;;;;;24.33;18.83;;;;;;;7.46;nan;96275.06;5034424;28;20212;-71
2022/03/31 01:21:53;;;;;;;22.10;18.70;;;;;;;7.37;nan;96271.22;5034424;28;20680;-71
2022/03/31 01:24:19;;;;;;;22.00;18.13;;;;;;;7.40;nan;96271.53;5034624;28;20230;-71
2022/03/31 01:26:46;;;;;;;21.50;16.93;;;;;;;7.34;nan;96269.03;5034563;28;20234;-71
2022/03/31 01:29:12;;;;;;;19.80;17.27;;;;;;;7.44;nan;96271.84;5034041;28;20260;-71
2022/03/31 01:31:39;;;;;;;20.67;16.20;;;;;;;7.39;nan;96263.81;5034270;28;20566;-71
2022/03/31 01:34:09;;;;;;;21.07;16.80;;;;;;;7.29;nan;96261.81;5035387;28;20210;-71
2022/03/31 01:36:38;;;;;;;19.37;16.93;;;;;;;7.26;nan;96258.88;5034140;28;20230;-71
2022/03/31 01:39:06;;;;;;;21.50;17.40;;;;;;;7.24;nan;96264.41;5035254;28;20206;-71
2022/03/31 01:41:32;;;;;;;19.20;15.77;;;;;;;7.26;nan;96248.31;5034390;28;20214;-71
2022/03/31 01:43:59;;;;;;;18.80;16.33;;;;;;;7.19;nan;96258.25;5033945;28;20214;-71
2022/03/31 01:46:25;;;;;;;18.83;16.03;;;;;;;7.10;nan;96246.47;5034763;28;20212;-71
2022/03/31 01:48:52;;;;;;;19.13;15.53;;;;;;;7.11;nan;96238.28;5034210;28;20205;-71
2022/03/31 01:51:19;;;;;;;17.93;16.00;;;;;;;7.16;nan;96237.59;5033929;28;20268;-71
2022/03/31 01:53:46;;;;;;;17.90;15.10;;;;;;;7.23;nan;96235.56;5034199;28;20229;-71
2022/03/31 01:56:13;;;;;;;15.60;13.90;;;;;;;7.14;nan;96235.19;5033930;28;20209;-71
2022/03/31 01:58:39;;;;;;;16.90;13.43;;;;;;;7.13;nan;96235.41;5034362;28;20194;-71
2022/03/31 02:01:06;;;;;;;15.87;14.13;;;;;;;7.09;nan;96229.00;5034031;28;20212;-71
2022/03/31 02:03:33;;;;;;;15.83;14.13;;;;;;;7.04;nan;96231.56;5033691;28;20210;-71
2022/03/31 02:06:00;;;;;;;16.80;14.03;;;;;;;6.91;nan;96227.41;5033935;28;20660;-71
2022/03/31 02:08:26;;;;;;;19.07;13.90;;;;;;;7.02;nan;96225.75;5033823;28;20228;-71
2022/03/31 02:10:52;;;;;;;16.87;13.73;;;;;;;7.04;nan;96224.47;5033843;28;20202;-71
2022/03/31 02:13:19;;;;;;;17.47;14.47;;;;;;;7.08;nan;96222.13;5033566;28;20683;-71
2022/03/31 02:15:45;;;;;;;16.07;13.70;;;;;;;7.04;nan;96221.00;5033503;28;20669;-71
2022/03/31 02:18:12;;;;;;;16.63;14.07;;;;;;;6.96;nan;96221.41;5034359;28;20232;-71
2022/03/31 02:20:39;;;;;;;19.33;15.33;;;;;;;6.81;nan;96216.69;5033494;28;20206;-71
2022/03/31 02:23:05;;;;;;;17.40;14.70;;;;;;;6.95;nan;96207.41;5033703;28;20572;-71
2022/03/31 02:25:32;;;;;;;15.73;13.90;;;;;;;6.83;nan;96211.19;5033632;28;20222;-71
2022/03/31 02:27:58;;;;;;;18.60;15.33;;;;;;;6.61;nan;96208.41;5033616;28;20271;-71
2022/03/31 02:30:25;;;;;;;16.23;14.53;;;;;;;6.64;nan;96204.50;5033632;28;20210;-71
2022/03/31 02:32:52;;;;;;;17.93;14.07;;;;;;;6.50;nan;96201.38;5033535;28;20212;-70
2022/03/31 02:35:18;;;;;;;16.23;14.00;;;;;;;6.39;nan;96204.09;5033611;28;20202;-71
2022/03/31 02:37:44;;;;;;;15.87;14.17;;;;;;;6.30;nan;96202.88;5033977;28;20593;-71
2022/03/31 02:40:11;;;;;;;16.30;14.63;;;;;;;6.24;nan;96214.38;5032611;28;20213;-71
2022/03/31 02:42:38;;;;;;;16.03;14.43;;;;;;;6.34;nan;96214.56;5033513;28;20212;-70
2022/03/31 02:45:06;;;;;;;16.47;14.70;;;;;;;6.20;nan;96208.75;5033405;28;20222;-71
2022/03/31 02:47:34;;;;;;;18.23;15.40;;;;;;;6.19;nan;96201.09;5033640;28;20236;-71
2022/03/31 02:50:00;;;;;;;17.23;15.40;;;;;;;6.13;nan;96204.66;5033774;28;20209;-71
2022/03/31 02:55:24;;;;;;;19.17;15.40;;;;;;;6.21;nan;96193.72;5033464;28;20217;-71
2022/03/31 02:55:24;;;;;;;17.40;15.33;;;;;;;6.21;nan;96191.09;5033336;28;20190;-71
2022/03/31 02:57:51;;;;;;;16.93;14.63;;;;;;;6.26;nan;96189.34;5033171;28;20237;-71
2022/03/31 03:00:18;;;;;;;17.53;15.53;;;;;;;6.33;nan;96194.50;5033370;28;20300;-70
2022/03/31 03:02:44;;;;;;;17.27;15.40;;;;;;;6.20;nan;96184.22;5033012;28;20245;-71
2022/03/31 03:05:10;;;;;;;17.73;15.37;;;;;;;6.11;nan;96180.38;5032891;28;20239;-71
2022/03/31 03:07:37;;;;;;;17.50;15.70;;;;;;;5.94;nan;96180.31;5032915;28;20226;-71
2022/03/31 03:10:03;;;;;;;18.10;15.67;;;;;;;5.95;nan;96184.56;5032940;28;20210;-71
2022/03/31 03:12:31;;;;;;;17.57;15.70;;;;;;;5.93;nan;96180.56;5033258;28;20217;-70
2022/03/31 03:14:57;;;;;;;18.43;15.77;;;;;;;6.06;nan;96172.38;5033207;28;20205;-71
2022/03/31 03:17:24;;;;;;;17.10;15.37;;;;;;;6.02;nan;96176.50;5033036;28;20233;-70
2022/03/31 03:19:50;;;;;;;17.33;15.43;;;;;;;6.03;nan;96175.47;5032827;28;20547;-71
2022/03/31 03:22:17;;;;;;;17.97;16.00;;;;;;;6.02;nan;96172.00;5033957;28;20580;-71
2022/03/31 03:24:43;;;;;;;17.83;15.50;;;;;;;6.15;nan;96170.94;5032974;28;20225;-71
2022/03/31 03:27:09;;;;;;;17.77;15.97;;;;;;;6.10;nan;96169.00;5033210;28;20230;-71
2022/03/31 03:29:36;;;;;;;17.83;15.83;;;;;;;6.10;nan;96171.63;5033038;28;20217;-71
2022/03/31 03:32:03;;;;;;;17.87;16.10;;;;;;;6.01;nan;96167.78;5033498;28;20240;-71
2022/03/31 03:34:29;;;;;;;17.93;16.13;;;;;;;6.01;nan;96162.50;5032895;28;20206;-71
2022/03/31 03:36:55;;;;;;;19.33;15.73;;;;;;;6.01;nan;96167.00;5032680;28;20226;-71
2022/03/31 03:39:22;;;;;;;17.63;14.83;;;;;;;5.97;nan;96160.59;5032678;28;20209;-71
2022/03/31 03:41:48;;;;;;;16.70;15.00;;;;;;;5.99;nan;96166.41;5032935;28;20210;-70
2022/03/31 03:44:14;;;;;;;17.23;15.40;;;;;;;6.03;nan;96160.44;5032874;28;20210;-71
2022/03/31 03:46:41;;;;;;;18.27;16.27;;;;;;;6.07;nan;96163.41;5032660;28;20237;-71
2022/03/31 03:49:07;;;;;;;17.43;15.63;;;;;;;5.95;nan;96160.81;5032792;28;20217;-71
2022/03/31 03:51:36;;;;;;;18.90;16.03;;;;;;;5.98;nan;96162.19;5034949;28;20210;-71
2022/03/31 03:54:03;;;;;;;17.63;15.73;;;;;;;5.99;nan;96166.41;5036362;28;20206;-71
2022/03/31 03:56:29;;;;;;;17.57;15.47;;;;;;;5.95;nan;96168.72;5036010;28;20221;-71
2022/03/31 03:58:55;;;;;;;18.00;14.90;;;;;;;6.13;nan;96165.91;5036496;28;20217;-71
2022/03/31 04:01:22;;;;;;;18.00;16.10;;;;;;;6.00;nan;96168.00;5036135;28;20209;-71
2022/03/31 04:03:48;;;;;;;17.60;15.80;;;;;;;5.97;nan;96157.97;5035921;28;20216;-71
2022/03/31 04:06:14;;;;;;;18.27;16.33;;;;;;;5.64;nan;96163.06;5035726;28;20232;-71
2022/03/31 04:08:41;;;;;;;19.80;16.53;;;;;;;5.55;nan;96161.81;5035621;28;20301;-71
2022/03/31 04:11:07;;;;;;;18.83;16.83;;;;;;;5.58;nan;96164.81;5035660;28;20206;-70
2022/03/31 04:13:34;;;;;;;17.67;15.77;;;;;;;5.58;nan;96158.72;5035970;28;20213;-71
2022/03/31 04:16:00;;;;;;;15.83;14.03;;;;;;;5.78;nan;96159.13;5035784;28;20220;-71
2022/03/31 04:18:26;;;;;;;17.20;15.10;;;;;;;5.70;nan;96159.50;5035337;28;20256;-70
2022/03/31 04:20:53;;;;;;;18.37;16.37;;;;;;;5.69;nan;96165.78;5035298;28;20555;-71
2022/03/31 04:23:19;;;;;;;18.63;16.67;;;;;;;5.57;nan;96162.41;5035476;28;20217;-70
2022/03/31 04:25:45;;;;;;;18.50;15.80;;;;;;;5.61;nan;96166.19;5035796;28;20222;-71
2022/03/31 04:28:13;;;;;;;17.40;15.67;;;;;;;5.76;nan;96155.94;5035503;28;20222;-71
2022/03/31 04:30:39;;;;;;;17.87;16.07;;;;;;;5.52;nan;96165.72;5035481;28;20213;-70
2022/03/31 04:33:06;;;;;;;17.77;15.97;;;;;;;5.42;nan;96162.13;5035520;28;20206;-71
2022/03/31 04:35:32;;;;;;;17.43;15.53;;;;;;;5.55;nan;96161.81;5035491;28;20574;-71
2022/03/31 04:37:58;;;;;;;18.53;15.57;;;;;;;5.71;nan;96154.00;5035299;28;20226;-70
2022/03/31 04:40:25;;;;;;;16.67;14.97;;;;;;;5.65;nan;96148.88;5035414;28;20213;-70
2022/03/31 04:42:51;;;;;;;18.70;16.60;;;;;;;5.57;nan;96151.88;5034776;28;20210;-70
2022/03/31 04:45:18;;;;;;;16.63;14.70;;;;;;;5.73;nan;96154.56;5034449;28;20226;-71
2022/03/31 04:47:44;;;;;;;15.60;13.73;;;;;;;5.74;nan;96153.53;5034921;28;20233;-70
2022/03/31 04:50:12;;;;;;;16.97;15.17;;;;;;;5.62;nan;96155.41;5035199;28;20205;-71
2022/03/31 04:52:39;;;;;;;17.47;15.67;;;;;;;5.53;nan;96161.28;5034831;28;20297;-70
2022/03/31 04:55:06;;;;;;;17.57;15.53;;;;;;;5.51;nan;96153.59;5035064;28;20205;-71
2022/03/31 04:57:33;;;;;;;16.97;14.40;;;;;;;5.44;nan;96152.94;5034623;28;20668;-70
2022/03/31 04:59:59;;;;;;;16.87;14.90;;;;;;;5.44;nan;96152.94;5034840;28;20218;-69
2022/03/31 05:02:25;;;;;;;17.23;15.23;;;;;;;5.53;nan;96146.28;5033780;28;20585;-70
2022/03/31 05:04:52;;;;;;;16.20;14.60;;;;;;;5.38;nan;96159.13;5034572;28;20206;-70
2022/03/31 05:07:18;;;;;;;16.83;15.03;;;;;;;5.45;nan;96148.44;5034753;28;20230;-70
2022/03/31 05:09:45;;;;;;;17.13;15.33;;;;;;;5.58;nan;96149.00;5034770;28;20300;-70
2022/03/31 05:12:12;;;;;;;17.00;15.30;;;;;;;5.64;nan;96145.44;5034378;28;20210;-70
2022/03/31 05:14:39;;;;;;;15.13;13.53;;;;;;;5.63;nan;96146.47;5034912;28;20301;-70
2022/03/31 05:17:06;;;;;;;16.93;15.23;;;;;;;5.58;nan;96145.56;5034392;28;20222;-70
2022/03/31 05:19:33;;;;;;;16.10;14.50;;;;;;;5.59;nan;96150.59;5034369;28;20208;-70
2022/03/31 05:21:59;;;;;;;16.97;15.17;;;;;;;5.36;nan;96149.84;5034432;28;20583;-70
2022/03/31 05:24:25;;;;;;;16.47;14.87;;;;;;;5.33;nan;96145.06;5033868;28;20206;-70
2022/03/31 05:26:52;;;;;;;17.00;15.30;;;;;;;5.31;nan;96155.00;5033724;28;20252;-70
2022/03/31 05:29:22;;;;;;;17.23;15.53;;;;;;;5.40;nan;96143.09;5033813;28;20237;-70
2022/03/31 05:31:49;;;;;;;17.07;15.03;;;;;;;5.40;nan;96145.72;5034486;28;20210;-70
2022/03/31 05:34:16;;;;;;;16.37;14.77;;;;;;;5.46;nan;96144.78;5034079;28;20256;-70
2022/03/31 05:36:43;;;;;;;16.97;15.13;;;;;;;5.34;nan;96144.81;5033886;28;20229;-70
2022/03/31 05:39:09;;;;;;;17.87;16.03;;;;;;;5.37;nan;96141.72;5033587;28;20205;-70
2022/03/31 05:41:36;;;;;;;17.50;15.70;;;;;;;5.47;nan;96138.50;5033705;28;20210;-70
2022/03/31 05:44:02;;;;;;;16.70;15.00;;;;;;;5.47;nan;96138.50;5034052;28;20208;-70
2022/03/31 05:46:28;;;;;;;20.10;16.87;;;;;;;5.50;nan;96141.47;5033715;28;20229;-70
2022/03/31 05:48:55;;;;;;;17.43;15.63;;;;;;;5.62;nan;96125.59;5033453;28;20751;-71
2022/03/31 05:51:21;;;;;;;18.70;15.83;;;;;;;5.66;nan;96132.00;5033492;28;20217;-70
2022/03/31 05:53:48;;;;;;;18.60;16.67;;;;;;;5.56;nan;96145.78;5033678;28;20580;-70
2022/03/31 05:56:14;;;;;;;16.93;15.10;;;;;;;5.62;nan;96139.59;5033469;28;20289;-70
2022/03/31 05:58:40;;;;;;;18.07;15.73;;;;;;;5.73;nan;96138.75;5034192;28;20217;-70
2022/03/31 06:01:07;;;;;;;17.73;15.90;;;;;;;5.40;nan;96145.72;5033436;28;20217;-71
2022/03/31 06:03:33;;;;;;;18.10;16.20;;;;;;;5.61;nan;96145.88;5034213;28;20214;-70
2022/03/31 06:05:59;;;;;;;18.77;16.77;;;;;;;5.48;nan;96151.41;5033230;28;20226;-70
2022/03/31 06:08:26;;;;;;;19.37;16.30;;;;;;;5.65;nan;96157.56;5033124;28;20229;-70
2022/03/31 06:10:53;;;;;;;17.40;15.60;;;;;;;5.72;nan;96149.53;5033227;28;20205;-70
2022/03/31 06:13:19;;;;;;;19.37;16.80;;;;;;;5.62;nan;96141.41;5033169;28;20257;-70
2022/03/31 06:15:46;;;;;;;19.37;17.27;;;;;;;5.58;nan;96145.56;5033267;28;20202;-70
2022/03/31 06:18:12;;;;;;;17.80;15.90;;;;;;;5.55;nan;96138.09;5033020;28;20226;-70
2022/03/31 06:20:39;;;;;;;18.67;16.70;;;;;;;5.62;nan;96147.50;5033701;28;20211;-70
2022/03/31 06:23:06;;;;;;;18.07;16.20;;;;;;;5.46;nan;96147.41;5033492;28;20320;-71
2022/03/31 06:25:32;;;;;;;20.00;16.77;;;;;;;5.76;nan;96143.56;5032882;28;20226;-70
2022/03/31 06:27:59;;;;;;;17.23;15.37;;;;;;;5.86;nan;96135.06;5033260;28;20230;-70
2022/03/31 06:30:25;;;;;;;18.57;16.27;;;;;;;5.94;nan;96134.69;5033200;28;20206;-70
2022/03/31 06:32:51;;;;;;;18.47;16.40;;;;;;;5.91;nan;96137.78;5032951;28;20209;-70
2022/03/31 06:35:19;;;;;;;24.43;17.93;;;;;;;5.77;nan;96142.53;5032784;28;20213;-70
2022/03/31 06:37:46;;;;;;;20.80;16.60;;;;;;;5.71;nan;96137.38;5032604;28;20652;-70
2022/03/31 06:40:14;;;;;;;19.43;17.43;;;;;;;5.74;nan;96136.91;5032945;28;20669;-70
2022/03/31 06:42:42;;;;;;;19.90;17.07;;;;;;;5.79;nan;96129.09;5032073;28;20208;-70
2022/03/31 06:45:12;;;;;;;17.57;15.77;;;;;;;6.17;nan;96126.66;5032946;28;20213;-70
2022/03/31 06:47:40;;;;;;;18.23;16.30;;;;;;;6.18;nan;96133.53;5032999;28;20233;-70
2022/03/31 06:50:08;;;;;;;18.07;15.93;;;;;;;6.14;nan;96137.66;5032924;28;20229;-70
2022/03/31 06:52:35;;;;;;;18.30;16.47;;;;;;;5.97;nan;96128.94;5033251;28;20206;-71
2022/03/31 06:55:01;;;;;;;18.00;15.43;;;;;;;6.30;nan;96136.91;5033106;28;20213;-71
2022/03/31 06:57:27;;;;;;;18.07;16.27;;;;;;;6.24;nan;96124.69;5032595;28;20608;-71
2022/03/31 06:59:54;;;;;;;19.20;16.53;;;;;;;6.36;nan;96133.31;5032891;28;20210;-70
2022/03/31 07:02:20;;;;;;;17.30;15.47;;;;;;;6.26;nan;96125.22;5032929;28;20206;-70
2022/03/31 07:04:46;;;;;;;16.47;14.77;;;;;;;6.26;nan;96128.69;5033238;28;20201;-70
2022/03/31 07:07:13;;;;;;;18.13;16.17;;;;;;;6.23;nan;96129.13;5032738;28;20234;-70
2022/03/31 07:09:39;;;;;;;18.47;16.57;;;;;;;6.29;nan;96132.66;5032946;28;20210;-71
2022/03/31 07:12:06;;;;;;;17.93;15.70;;;;;;;5.96;nan;96124.69;5032971;28;20572;-71
2022/03/31 07:14:36;;;;;;;17.77;15.87;;;;;;;5.92;nan;96123.59;5032932;28;20701;-71
2022/03/31 07:17:03;;;;;;;17.93;16.03;;;;;;;6.06;nan;96120.41;5033017;28;20218;-71
2022/03/31 07:19:29;;;;;;;17.90;16.10;;;;;;;6.18;nan;96115.88;5032839;28;20213;-71
2022/03/31 07:21:55;;;;;;;18.10;16.20;;;;;;;6.12;nan;96116.00;5032738;28;20222;-71
2022/03/31 07:24:22;;;;;;;17.90;15.83;;;;;;;6.27;nan;96119.72;5032652;28;20233;-71
2022/03/31 07:26:48;;;;;;;17.47;15.67;;;;;;;6.63;nan;96113.97;5034876;28;20237;-71
2022/03/31 07:29:14;;;;;;;19.53;16.60;;;;;;;6.41;nan;96117.53;5035912;28;20213;-71
2022/03/31 07:31:41;;;;;;;18.43;16.53;;;;;;;6.46;nan;96115.00;5036056;28;20689;-71
2022/03/31 07:34:07;;;;;;;17.87;15.97;;;;;;;6.43;nan;96116.28;5036407;28;20224;-71
2022/03/31 07:36:33;;;;;;;17.53;15.63;;;;;;;6.35;nan;96116.69;5036274;28;20221;-71
2022/03/31 07:39:00;;;;;;;17.93;16.03;;;;;;;6.48;nan;96115.56;5036492;28;20206;-71
2022/03/31 07:41:26;;;;;;;18.30;16.47;;;;;;;6.30;nan;96102.59;5036406;28;20210;-71
2022/03/31 07:43:53;;;;;;;18.37;15.70;;;;;;;6.69;nan;96105.06;5036221;28;20280;-71
2022/03/31 07:46:19;;;;;;;18.00;15.87;;;;;;;6.75;nan;96109.38;5036194;28;20229;-71
2022/03/31 07:48:45;;;;;;;18.03;16.13;;;;;;;6.70;nan;96105.88;5036465;28;20209;-71
2022/03/31 07:51:12;;;;;;;19.10;17.07;;;;;;;6.66;nan;96107.41;5036107;28;20554;-71
2022/03/31 07:53:38;;;;;;;17.47;15.70;;;;;;;6.74;nan;96102.50;5037032;28;20586;-71
2022/03/31 07:56:06;;;;;;;17.97;16.10;;;;;;;6.81;nan;96103.16;5036106;28;20202;-71
2022/03/31 07:58:33;;;;;;;20.03;16.33;;;;;;;6.92;nan;96099.59;5035595;28;20209;-71
2022/03/31 08:00:59;;;;;;;17.67;15.87;;;;;;;6.77;nan;96098.56;5035896;28;20210;-71
2022/03/31 08:03:26;;;;;;;17.77;15.97;;;;;;;6.87;nan;96101.38;5035989;28;20202;-71
2022/03/31 08:05:52;;;;;;;17.90;16.00;;;;;;;7.09;nan;96097.72;5035721;28;20206;-71
2022/03/31 08:08:20;;;;;;;18.50;16.23;;;;;;;6.99;nan;96110.00;5035542;28;20238;-71
2022/03/31 08:10:46;;;;;;;18.50;16.13;;;;;;;7.06;nan;96115.91;5035772;28;20209;-71
2022/03/31 08:13:13;;;;;;;19.13;16.33;;;;;;;7.02;nan;96105.00;5035773;28;20210;-71
2022/03/31 08:15:39;;;;;;;19.13;16.47;;;;;;;6.91;nan;96108.56;5035928;28;20577;-71
2022/03/31 08:18:06;;;;;;;19.10;17.10;;;;;;;6.65;nan;96103.16;5035555;28;20253;-71
2022/03/31 08:20:32;;;;;;;19.00;16.80;;;;;;;6.88;nan;96108.25;5035214;28;20681;-71
2022/03/31 08:22:59;;;;;;;19.70;17.70;;;;;;;6.77;nan;96098.56;5035674;28;20216;-71
2022/03/31 08:25:25;;;;;;;20.00;17.67;;;;;;;6.71;nan;96097.72;5036102;28;20744;-71
2022/03/31 08:27:52;;;;;;;20.83;18.27;;;;;;;6.86;nan;96102.41;5035067;28;20284;-71
2022/03/31 08:30:21;;;;;;;19.27;17.23;;;;;;;7.00;nan;96101.00;5035185;28;20210;-71
2022/03/31 08:32:48;;;;;;;18.73;16.73;;;;;;;7.04;nan;96099.47;5035057;28;20210;-71
2022/03/31 08:35:16;;;;;;;18.93;16.40;;;;;;;6.98;nan;96096.00;5035518;28;20575;-71
2022/03/31 08:37:43;;;;;;;19.50;17.50;;;;;;;6.59;nan;96093.56;5034943;28;20268;-71
2022/03/31 08:40:12;;;;;;;21.23;18.97;;;;;;;6.71;nan;96096.91;5035415;28;20209;-71
2022/03/31 08:42:39;;;;;;;19.13;17.13;;;;;;;6.64;nan;96091.78;5035318;28;20225;-71
2022/03/31 08:45:10;;;;;;;19.00;17.00;;;;;;;6.92;nan;96090.88;5035069;28;20232;-71
2022/03/31 08:47:39;;;;;;;19.50;17.40;;;;;;;6.65;nan;96087.31;5033985;28;20236;-71
2022/03/31 08:50:06;;;;;;;19.57;17.47;;;;;;;6.55;nan;96084.50;5035669;28;20209;-71
2022/03/31 08:52:32;;;;;;;20.57;18.43;;;;;;;6.63;nan;96084.91;5035257;28;20212;-71
2022/03/31 08:54:59;;;;;;;19.27;17.17;;;;;;;6.92;nan;96080.31;5035061;28;20216;-71
2022/03/31 08:57:25;;;;;;;19.53;17.37;;;;;;;7.19;nan;96092.56;5034594;28;20240;-71
2022/03/31 08:59:52;;;;;;;19.10;17.20;;;;;;;6.97;nan;96085.66;5034600;28;20664;-71
2022/03/31 09:02:26;;;;;;;21.63;18.27;;;;;;;6.97;nan;96072.47;5034866;28;20209;-71
2022/03/31 09:05:10;;;;;;;19.77;17.73;;;;;;;7.38;nan;96071.94;5034914;28;20209;-71
2022/03/31 09:08:00;;;;;;;18.83;16.93;;;;;;;7.54;nan;96074.50;5034740;28;20237;-71
2022/03/31 09:10:36;;;;;;;18.73;16.73;;;;;;;7.61;nan;96074.31;5035641;28;20209;-71
2022/03/31 09:13:17;;;;;;;19.73;17.67;;;;;;;8.18;nan;96078.84;5034765;28;20194;-71
2022/03/31 09:15:56;;;;;;;21.50;18.10;;;;;;;8.27;nan;96081.84;5034630;28;20194;-71
2022/03/31 09:18:24;;;;;;;18.60;16.70;;;;;;;8.12;nan;96084.34;5034334;28;20222;-71
2022/03/31 09:20:53;;;;;;;18.83;16.83;;;;;;;8.09;nan;96076.88;5034269;28;20661;-71
2022/03/31 09:23:26;;;;;;;19.03;17.13;;;;;;;7.85;nan;96078.25;5035273;28;20212;-71
2022/03/31 09:25:53;;;;;;;19.23;17.20;;;;;;;7.82;nan;96079.56;5034186;28;20208;-71
2022/03/31 09:28:24;;;;;;;19.27;17.27;;;;;;;8.07;nan;96081.66;5033918;28;20230;-71
2022/03/31 09:30:55;;;;;;;19.40;17.20;;;;;;;7.97;nan;96090.28;5034616;28;20201;-71
2022/03/31 09:33:33;;;;;;;19.23;17.20;;;;;;;8.14;nan;96077.75;5035042;28;20539;-71
2022/03/31 09:36:01;;;;;;;19.80;17.70;;;;;;;8.09;nan;96071.59;5034385;28;20197;-71
2022/03/31 09:38:29;;;;;;;18.90;16.93;;;;;;;8.25;nan;96076.81;5034185;28;20233;-71
2022/03/31 09:40:55;;;;;;;18.63;16.17;;;;;;;8.65;nan;96063.09;5034686;28;20667;-71
2022/03/31 09:43:22;;;;;;;19.27;17.37;;;;;;;8.46;nan;96067.97;5033684;28;20206;-71
2022/03/31 09:45:48;;;;;;;19.00;16.90;;;;;;;8.72;nan;96075.06;5034242;28;20297;-71
2022/03/31 09:48:25;;;;;;;18.80;16.90;;;;;;;8.41;nan;96072.47;5033278;28;20596;-71
2022/03/31 09:50:51;;;;;;;20.13;17.90;;;;;;;8.64;nan;96064.94;5033852;28;20194;-71
2022/03/31 09:53:17;;;;;;;19.30;17.23;;;;;;;8.64;nan;96061.50;5033866;28;20217;-71
2022/03/31 09:55:45;;;;;;;19.83;17.57;;;;;;;8.94;nan;96054.53;5033607;28;20293;-71
2022/03/31 09:58:19;;;;;;;20.07;17.97;;;;;;;8.63;nan;96055.41;5033502;28;20238;-71
2022/03/31 10:00:47;;;;;;;19.80;17.80;;;;;;;9.14;nan;96041.38;5033711;28;20196;-71
2022/03/31 10:03:17;;;;;;;19.77;17.73;;;;;;;9.42;nan;96048.91;5033631;28;20210;-71
2022/03/31 10:05:45;;;;;;;21.33;19.00;;;;;;;9.77;nan;96041.06;5033165;28;20228;-71
2022/03/31 10:08:12;;;;;;;21.80;19.07;;;;;;;10.14;nan;96035.59;5033424;28;20332;-71
2022/03/31 10:10:40;;;;;;;19.20;17.03;;;;;;;9.70;nan;96037.06;5033167;28;20209;-71
2022/03/31 10:13:21;;;;;;;19.00;17.10;;;;;;;10.12;nan;96040.34;5033393;28;20212;-71
2022/03/31 10:15:52;;;;;;;20.97;18.77;;;;;;;9.97;nan;96040.31;5033376;28;20201;-71
2022/03/31 10:18:19;;;;;;;18.93;16.93;;;;;;;10.30;nan;96040.63;5032100;28;20657;-71
2022/03/31 10:21:00;;;;;;;18.80;16.90;;;;;;;10.74;nan;96038.19;5033160;28;20216;-72
2022/03/31 10:26:26;;;;;;;20.33;18.13;;;;;;;10.04;nan;96038.16;5032939;28;20177;-71
2022/03/31 10:28:56;;;;;;;26.90;22.70;;;;;;;9.72;nan;96033.09;5033024;28;20213;-72
2022/03/31 10:31:37;;;;;;;20.27;17.97;;;;;;;9.76;nan;96033.34;5033243;28;20209;-71
2022/03/31 10:34:04;;;;;;;18.93;17.03;;;;;;;9.77;nan;96025.16;5033159;28;20300;-71
2022/03/31 10:36:45;;;;;;;18.90;17.00;;;;;;;10.23;nan;96031.34;5032719;28;20312;-71
2022/03/31 10:39:20;;;;;;;19.73;17.60;;;;;;;9.97;nan;96029.69;5032856;28;20190;-71
2022/03/31 10:41:48;;;;;;;20.53;18.37;;;;;;;9.62;nan;96032.25;5033256;28;20213;-71
2022/03/31 10:44:15;;;;;;;19.87;17.87;;;;;;;9.36;nan;96034.03;5033304;28;20205;-71
2022/03/31 10:46:42;;;;;;;21.90;18.00;;;;;;;9.07;nan;96029.41;5033540;28;20240;-71
2022/03/31 10:49:12;;;;;;;21.07;18.20;;;;;;;9.18;nan;96023.91;5033002;28;20209;-71
2022/03/31 10:51:43;;;;;;;20.20;18.07;;;;;;;8.82;nan;96026.66;5033635;28;20217;-71
2022/03/31 10:54:12;;;;;;;21.57;18.67;;;;;;;8.91;nan;96028.53;5033014;28;20252;-71
2022/03/31 10:56:40;;;;;;;20.70;18.27;;;;;;;9.07;nan;96024.94;5033042;28;20240;-71
2022/03/31 10:59:08;;;;;;;21.90;18.47;;;;;;;8.91;nan;96022.47;5032697;28;20618;-71
2022/03/31 11:01:40;;;;;;;21.20;18.90;;;;;;;9.30;nan;96019.19;5035532;28;20209;-71
2022/03/31 11:04:09;;;;;;;21.00;18.80;;;;;;;9.80;nan;96014.00;5037277;28;20200;-71
2022/03/31 11:06:49;;;;;;;19.40;17.30;;;;;;;9.80;nan;96018.50;5036746;28;20230;-71
2022/03/31 11:09:26;;;;;;;21.00;18.20;;;;;;;9.68;nan;96017.97;5036978;28;20205;-71
2022/03/31 11:11:55;;;;;;;18.50;16.57;;;;;;;9.94;nan;96014.28;5036808;28;20237;-71
2022/03/31 11:14:22;;;;;;;21.50;19.23;;;;;;;9.94;nan;96015.09;5036756;28;20209;-71
2022/03/31 11:16:48;;;;;;;20.83;18.33;;;;;;;9.72;nan;96011.06;5036777;28;20230;-71
2022/03/31 11:19:18;;;;;;;22.40;17.57;;;;;;;9.58;nan;96008.13;5036574;28;20300;-71
2022/03/31 11:21:44;;;;;;;21.40;19.10;;;;;;;9.68;nan;96008.16;5036810;28;20209;-71
2022/03/31 11:24:11;;;;;;;20.43;17.80;;;;;;;9.92;nan;96003.16;5036760;28;20217;-71
2022/03/31 11:26:40;;;;;;;23.63;19.07;;;;;;;9.72;nan;95998.59;5036891;28;20232;-72
2022/03/31 11:29:16;;;;;;;21.43;17.97;;;;;;;9.59;nan;96000.97;5036473;28;20739;-72
2022/03/31 11:31:53;;;;;;;21.37;19.07;;;;;;;9.41;nan;96004.13;5036753;28;20205;-72
2022/03/31 11:34:23;;;;;;;20.37;18.23;;;;;;;9.89;nan;95998.34;5036727;28;20208;-72
2022/03/31 11:36:51;;;;;;;23.40;18.77;;;;;;;9.77;nan;95993.31;5036896;28;20222;-72
2022/03/31 11:39:19;;;;;;;19.57;17.47;;;;;;;9.45;nan;95990.06;5036368;28;20230;-71
2022/03/31 11:41:46;;;;;;;21.03;18.20;;;;;;;9.86;nan;95983.75;5036184;28;20210;-71
2022/03/31 11:44:13;;;;;;;19.20;17.20;;;;;;;10.07;nan;95984.59;5036770;28;20575;-72
2022/03/31 11:46:47;;;;;;;19.30;16.93;;;;;;;10.23;nan;95980.88;5036055;28;20240;-71